createdAt,value
2023-05-19T00:00:21.297Z,10.96
2023-05-19T00:01:17.315Z,10.94
2023-05-19T00:01:49.979Z,10.92
2023-05-19T00:02:25.551Z,10.91
2023-05-19T00:02:59.989Z,10.91
2023-05-19T00:03:33.423Z,10.90
2023-05-19T00:04:06.584Z,10.90
2023-05-19T00:04:40.275Z,10.89
2023-05-19T00:05:14.674Z,10.89
2023-05-19T00:05:48.454Z,10.89
2023-05-19T00:06:26.401Z,10.89
2023-05-19T00:06:59.948Z,10.89
2023-05-19T00:07:33.334Z,10.88
2023-05-19T00:08:06.541Z,10.87
2023-05-19T00:08:38.717Z,10.88
2023-05-19T00:09:12.322Z,10.88
2023-05-19T00:09:44.621Z,10.88
2023-05-19T00:10:17.786Z,10.87
2023-05-19T00:10:50.258Z,10.87
2023-05-19T00:11:22.621Z,10.87
2023-05-19T00:11:56.326Z,10.87
2023-05-19T00:12:28.585Z,10.87
2023-05-19T00:13:01.132Z,10.87
2023-05-19T00:13:33.588Z,10.86
2023-05-19T00:14:08.929Z,10.87
2023-05-19T00:14:41.429Z,10.87
2023-05-19T00:15:14.544Z,10.87
2023-05-19T00:15:46.817Z,10.87
2023-05-19T00:16:19.010Z,10.87
2023-05-19T00:16:51.521Z,10.87
2023-05-19T00:17:24.440Z,10.85
2023-05-19T00:17:56.601Z,10.85
2023-05-19T00:18:29.424Z,10.86
2023-05-19T00:19:04.358Z,10.85
2023-05-19T00:19:37.717Z,10.86
2023-05-19T00:20:11.808Z,10.85
2023-05-19T00:20:43.658Z,10.86
2023-05-19T00:21:16.637Z,10.86
2023-05-19T00:21:48.536Z,10.87
2023-05-19T00:22:20.746Z,10.87
2023-05-19T00:22:52.688Z,10.88
2023-05-19T00:23:24.960Z,10.87
2023-05-19T00:23:57.632Z,10.88
2023-05-19T00:24:29.677Z,10.88
2023-05-19T00:25:01.728Z,10.88
2023-05-19T00:25:33.662Z,10.88
2023-05-19T00:26:05.923Z,10.88
2023-05-19T00:26:37.904Z,10.89
2023-05-19T00:27:10.140Z,10.89
2023-05-19T00:27:42.084Z,10.89
2023-05-19T00:28:14.089Z,10.89
2023-05-19T00:28:46.083Z,10.89
2023-05-19T00:29:18.296Z,10.90
2023-05-19T00:29:50.293Z,10.90
2023-05-19T00:30:22.665Z,10.91
2023-05-19T00:30:55.741Z,10.91
2023-05-19T00:31:28.631Z,10.91
2023-05-19T00:32:00.930Z,10.92
2023-05-19T00:32:33.049Z,10.92
2023-05-19T00:33:04.987Z,10.93
2023-05-19T00:33:37.330Z,10.93
2023-05-19T00:34:09.461Z,10.94
2023-05-19T00:34:42.143Z,10.95
2023-05-19T00:35:14.496Z,10.96
2023-05-19T00:35:46.439Z,10.96
2023-05-19T00:36:18.385Z,10.96
2023-05-19T00:36:50.856Z,10.96
2023-05-19T00:37:23.116Z,10.97
2023-05-19T00:37:55.258Z,10.97
2023-05-19T00:38:27.196Z,10.97
2023-05-19T00:38:59.051Z,10.98
2023-05-19T00:39:31.308Z,10.98
2023-05-19T00:40:05.825Z,10.99
2023-05-19T00:40:37.873Z,10.98
2023-05-19T00:41:10.638Z,10.99
2023-05-19T00:41:42.607Z,10.99
2023-05-19T00:42:14.544Z,11.00
2023-05-19T00:42:46.524Z,11.00
2023-05-19T00:43:18.437Z,11.00
2023-05-19T00:43:50.799Z,11.00
2023-05-19T00:44:22.846Z,11.00
2023-05-19T00:44:55.114Z,11.01
2023-05-19T00:45:27.564Z,11.01
2023-05-19T00:46:00.354Z,11.01
2023-05-19T00:46:32.346Z,11.02
2023-05-19T00:47:04.560Z,11.02
2023-05-19T00:47:36.959Z,11.02
2023-05-19T00:48:09.275Z,11.02
2023-05-19T00:48:44.383Z,11.02
2023-05-19T00:49:16.584Z,11.02
2023-05-19T00:49:48.599Z,11.02
2023-05-19T00:50:21.062Z,11.01
2023-05-19T00:50:57.516Z,11.01
2023-05-19T00:51:30.890Z,11.01
2023-05-19T00:52:05.762Z,11.01
2023-05-19T00:52:37.753Z,11.00
2023-05-19T00:53:09.900Z,10.99
2023-05-19T00:53:43.501Z,10.99
2023-05-19T00:54:15.860Z,10.98
2023-05-19T00:54:51.127Z,10.98
2023-05-19T00:55:29.075Z,10.98
2023-05-19T00:56:02.574Z,10.98
2023-05-19T00:56:35.351Z,10.99
2023-05-19T00:57:07.476Z,10.98
2023-05-19T00:57:39.654Z,10.98
2023-05-19T00:58:12.468Z,10.99
2023-05-19T00:58:45.773Z,11.00
2023-05-19T00:59:17.860Z,10.99
2023-05-19T00:59:50.101Z,10.98
2023-05-19T01:00:22.822Z,10.98
2023-05-19T01:01:03.168Z,10.96
2023-05-19T01:01:36.341Z,10.96
2023-05-19T01:02:08.536Z,10.95
2023-05-19T01:02:41.181Z,10.96
2023-05-19T01:03:14.772Z,10.96
2023-05-19T01:03:48.260Z,10.96
2023-05-19T01:04:21.453Z,10.96
2023-05-19T01:04:55.156Z,10.95
2023-05-19T01:05:27.206Z,10.96
2023-05-19T01:06:01.409Z,10.96
2023-05-19T01:06:34.274Z,10.96
2023-05-19T01:07:06.743Z,10.95
2023-05-19T01:07:41.049Z,10.96
2023-05-19T01:08:13.198Z,10.97
2023-05-19T01:08:46.192Z,10.96
2023-05-19T01:09:18.120Z,10.97
2023-05-19T01:09:50.779Z,10.97
2023-05-19T01:10:22.847Z,10.98
2023-05-19T01:10:55.093Z,10.98
2023-05-19T01:11:27.322Z,10.98
2023-05-19T01:12:01.255Z,10.99
2023-05-19T01:12:34.219Z,10.99
2023-05-19T01:13:07.624Z,10.99
2023-05-19T01:13:41.920Z,10.99
2023-05-19T01:14:15.412Z,11.00
2023-05-19T01:14:47.543Z,11.00
2023-05-19T01:15:19.391Z,11.01
2023-05-19T01:16:02.197Z,11.01
2023-05-19T01:16:39.841Z,11.01
2023-05-19T01:17:27.298Z,11.01
2023-05-19T01:18:11.663Z,11.01
2023-05-19T01:18:56.727Z,11.00
2023-05-19T01:20:01.812Z,10.99
2023-05-19T01:20:52.291Z,10.97
2023-05-19T01:21:55.478Z,10.97
2023-05-19T01:22:45.958Z,10.95
2023-05-19T01:23:32.372Z,10.95
2023-05-19T01:24:22.388Z,10.93
2023-05-19T01:25:19.987Z,10.91
2023-05-19T01:26:14.047Z,10.89
2023-05-19T01:27:13.372Z,10.88
2023-05-19T01:27:48.478Z,10.88
2023-05-19T01:28:44.674Z,10.87
2023-05-19T01:29:42.182Z,10.88
2023-05-19T01:30:22.063Z,10.86
2023-05-19T01:30:57.898Z,10.85
2023-05-19T01:31:30.080Z,10.85
2023-05-19T01:32:04.520Z,10.86
2023-05-19T01:32:40.249Z,10.86
2023-05-19T01:33:14.866Z,10.86
2023-05-19T01:33:48.879Z,10.86
2023-05-19T01:34:23.417Z,10.85
2023-05-19T01:34:57.286Z,10.85
2023-05-19T01:35:30.501Z,10.85
2023-05-19T01:36:03.874Z,10.85
2023-05-19T01:36:37.700Z,10.86
2023-05-19T01:37:11.270Z,10.86
2023-05-19T01:37:45.059Z,10.86
2023-05-19T01:38:19.051Z,10.86
2023-05-19T01:38:53.734Z,10.88
2023-05-19T01:39:26.223Z,10.88
2023-05-19T01:39:58.390Z,10.89
2023-05-19T01:40:32.216Z,10.89
2023-05-19T01:41:06.572Z,10.90
2023-05-19T01:41:41.599Z,10.91
2023-05-19T01:42:14.992Z,10.90
2023-05-19T01:42:48.483Z,10.91
2023-05-19T01:43:23.520Z,10.91
2023-05-19T01:43:56.774Z,10.92
2023-05-19T01:44:29.229Z,10.92
2023-05-19T01:45:02.110Z,10.92
2023-05-19T01:45:35.193Z,10.93
2023-05-19T01:46:08.013Z,10.93
2023-05-19T01:46:41.123Z,10.93
2023-05-19T01:47:14.113Z,10.93
2023-05-19T01:47:48.846Z,10.94
2023-05-19T01:48:21.234Z,10.94
2023-05-19T01:48:53.838Z,10.94
2023-05-19T01:49:25.895Z,10.94
2023-05-19T01:49:57.834Z,10.95
2023-05-19T01:50:30.987Z,10.94
2023-05-19T01:51:03.096Z,10.95
2023-05-19T01:51:35.649Z,10.96
2023-05-19T01:52:07.588Z,10.96
2023-05-19T01:52:39.653Z,10.96
2023-05-19T01:53:11.682Z,10.96
2023-05-19T01:53:43.737Z,10.96
2023-05-19T01:54:15.992Z,10.97
2023-05-19T01:54:47.837Z,10.97
2023-05-19T01:55:22.433Z,10.97
2023-05-19T01:55:57.006Z,10.98
2023-05-19T01:56:52.886Z,10.98
2023-05-19T01:57:24.833Z,10.97
2023-05-19T01:58:19.299Z,10.97
2023-05-19T01:59:04.057Z,10.96
2023-05-19T02:00:08.270Z,10.94
2023-05-19T02:01:03.498Z,10.92
2023-05-19T02:02:11.859Z,10.89
2023-05-19T02:02:56.828Z,10.85
2023-05-19T02:03:47.706Z,10.82
2023-05-19T02:04:32.234Z,10.81
2023-05-19T02:05:17.313Z,10.80
2023-05-19T02:05:55.597Z,10.80
2023-05-19T02:06:31.038Z,10.79
2023-05-19T02:07:19.991Z,10.80
2023-05-19T02:08:13.230Z,10.80
2023-05-19T02:08:58.297Z,10.79
2023-05-19T02:09:47.957Z,10.77
2023-05-19T02:10:30.546Z,10.76
2023-05-19T02:11:30.348Z,10.76
2023-05-19T02:12:11.837Z,10.76
2023-05-19T02:12:45.719Z,10.77
2023-05-19T02:13:21.162Z,10.78
2023-05-19T02:13:56.479Z,10.78
2023-05-19T02:14:58.326Z,10.79
2023-05-19T02:15:38.144Z,10.78
2023-05-19T02:16:13.047Z,10.76
2023-05-19T02:16:47.378Z,10.76
2023-05-19T02:17:20.511Z,10.77
2023-05-19T02:17:54.786Z,10.78
2023-05-19T02:18:29.462Z,10.78
2023-05-19T02:19:01.482Z,10.80
2023-05-19T02:19:42.078Z,10.80
2023-05-19T02:20:15.680Z,10.81
2023-05-19T02:20:48.346Z,10.82
2023-05-19T02:21:20.409Z,10.82
2023-05-19T02:21:52.979Z,10.83
2023-05-19T02:22:25.818Z,10.84
2023-05-19T02:22:57.778Z,10.84
2023-05-19T02:23:30.946Z,10.85
2023-05-19T02:24:03.631Z,10.87
2023-05-19T02:24:37.320Z,10.87
2023-05-19T02:25:10.185Z,10.88
2023-05-19T02:25:42.455Z,10.89
2023-05-19T02:26:14.583Z,10.89
2023-05-19T02:26:46.631Z,10.90
2023-05-19T02:27:18.797Z,10.91
2023-05-19T02:27:51.046Z,10.92
2023-05-19T02:28:23.205Z,10.92
2023-05-19T02:28:55.464Z,10.93
2023-05-19T02:29:27.607Z,10.94
2023-05-19T02:29:59.698Z,10.94
2023-05-19T02:30:31.885Z,10.94
2023-05-19T02:31:08.696Z,10.95
2023-05-19T02:31:40.796Z,10.95
2023-05-19T02:32:13.141Z,10.95
2023-05-19T02:32:46.425Z,10.95
2023-05-19T02:33:19.136Z,10.95
2023-05-19T02:33:51.010Z,10.94
2023-05-19T02:34:22.953Z,10.94
2023-05-19T02:34:56.213Z,10.94
2023-05-19T02:35:28.174Z,10.95
2023-05-19T02:36:00.335Z,10.94
2023-05-19T02:36:36.979Z,10.95
2023-05-19T02:37:09.032Z,10.95
2023-05-19T02:37:41.055Z,10.96
2023-05-19T02:38:13.042Z,10.95
2023-05-19T02:38:45.508Z,10.96
2023-05-19T02:39:17.752Z,10.96
2023-05-19T02:39:50.113Z,10.96
2023-05-19T02:40:22.472Z,10.96
2023-05-19T02:40:54.342Z,10.97
2023-05-19T02:41:26.474Z,10.97
2023-05-19T02:41:58.514Z,10.98
2023-05-19T02:42:31.102Z,10.98
2023-05-19T02:43:03.223Z,10.98
2023-05-19T02:43:35.242Z,10.99
2023-05-19T02:44:07.359Z,10.99
2023-05-19T02:44:39.201Z,10.99
2023-05-19T02:45:11.651Z,11.00
2023-05-19T02:45:43.802Z,11.00
2023-05-19T02:46:15.889Z,11.00
2023-05-19T02:46:47.958Z,11.00
2023-05-19T02:47:20.139Z,11.01
2023-05-19T02:47:52.132Z,11.02
2023-05-19T02:48:24.165Z,11.02
2023-05-19T02:48:56.114Z,11.02
2023-05-19T02:49:30.627Z,11.02
2023-05-19T02:50:03.189Z,11.03
2023-05-19T02:50:35.138Z,11.02
2023-05-19T02:51:07.188Z,11.03
2023-05-19T02:51:39.204Z,11.03
2023-05-19T02:52:11.812Z,11.03
2023-05-19T02:52:43.857Z,11.03
2023-05-19T02:53:15.808Z,11.04
2023-05-19T02:53:48.016Z,11.04
2023-05-19T02:54:20.226Z,11.04
2023-05-19T02:54:52.274Z,11.04
2023-05-19T02:55:24.320Z,11.04
2023-05-19T02:55:56.389Z,11.04
2023-05-19T02:56:28.441Z,11.05
2023-05-19T02:57:01.190Z,11.05
2023-05-19T02:57:35.023Z,11.06
2023-05-19T02:58:07.237Z,11.06
2023-05-19T02:58:39.292Z,11.06
2023-05-19T02:59:11.422Z,11.06
2023-05-19T02:59:43.829Z,11.07
2023-05-19T03:00:16.226Z,11.07
2023-05-19T03:00:48.112Z,11.07
2023-05-19T03:01:21.837Z,11.07
2023-05-19T03:02:01.308Z,11.08
2023-05-19T03:02:33.871Z,11.06
2023-05-19T03:03:06.183Z,11.06
2023-05-19T03:03:38.452Z,11.05
2023-05-19T03:04:11.026Z,11.04
2023-05-19T03:04:43.740Z,11.04
2023-05-19T03:05:15.896Z,11.04
2023-05-19T03:05:48.288Z,11.03
2023-05-19T03:06:22.865Z,11.03
2023-05-19T03:06:55.335Z,11.03
2023-05-19T03:07:27.487Z,11.03
2023-05-19T03:07:59.501Z,11.03
2023-05-19T03:08:31.686Z,11.03
2023-05-19T03:09:03.752Z,11.03
2023-05-19T03:09:37.402Z,11.03
2023-05-19T03:10:09.718Z,11.04
2023-05-19T03:10:41.771Z,11.04
2023-05-19T03:11:15.127Z,11.05
2023-05-19T03:11:47.175Z,11.05
2023-05-19T03:12:19.211Z,11.06
2023-05-19T03:12:51.385Z,11.06
2023-05-19T03:13:23.536Z,11.06
2023-05-19T03:13:55.782Z,11.06
2023-05-19T03:14:27.842Z,11.07
2023-05-19T03:15:00.871Z,11.08
2023-05-19T03:15:34.004Z,11.08
2023-05-19T03:16:07.845Z,11.08
2023-05-19T03:16:42.888Z,11.08
2023-05-19T03:17:14.912Z,11.08
2023-05-19T03:17:46.936Z,11.08
2023-05-19T03:18:19.186Z,11.08
2023-05-19T03:18:51.974Z,11.09
2023-05-19T03:19:24.170Z,11.09
2023-05-19T03:19:56.245Z,11.09
2023-05-19T03:20:30.233Z,11.09
2023-05-19T03:21:02.819Z,11.10
2023-05-19T03:21:35.189Z,11.09
2023-05-19T03:22:07.216Z,11.10
2023-05-19T03:22:39.111Z,11.11
2023-05-19T03:23:11.136Z,11.11
2023-05-19T03:23:43.385Z,11.12
2023-05-19T03:24:16.032Z,11.12
2023-05-19T03:24:50.761Z,11.13
2023-05-19T03:25:22.968Z,11.13
2023-05-19T03:25:55.894Z,11.13
2023-05-19T03:26:29.070Z,11.13
2023-05-19T03:27:02.175Z,11.12
2023-05-19T03:27:34.633Z,11.12
2023-05-19T03:28:06.763Z,11.12
2023-05-19T03:28:38.899Z,11.12
2023-05-19T03:29:11.156Z,11.12
2023-05-19T03:29:43.167Z,11.12
2023-05-19T03:30:15.353Z,11.12
2023-05-19T03:30:49.977Z,11.12
2023-05-19T03:31:22.140Z,11.12
2023-05-19T03:31:54.386Z,11.12
2023-05-19T03:32:26.718Z,11.12
2023-05-19T03:33:01.316Z,11.12
2023-05-19T03:33:33.654Z,11.11
2023-05-19T03:34:05.787Z,11.12
2023-05-19T03:34:37.735Z,11.12
2023-05-19T03:35:09.678Z,11.11
2023-05-19T03:35:42.044Z,11.11
2023-05-19T03:36:14.187Z,11.11
2023-05-19T03:36:46.433Z,11.11
2023-05-19T03:37:18.397Z,11.11
2023-05-19T03:37:50.648Z,11.10
2023-05-19T03:38:23.122Z,11.10
2023-05-19T03:38:55.159Z,11.11
2023-05-19T03:39:27.098Z,11.11
2023-05-19T03:39:59.873Z,11.12
2023-05-19T03:40:32.046Z,11.12
2023-05-19T03:41:04.399Z,11.13
2023-05-19T03:41:36.782Z,11.13
2023-05-19T03:42:08.915Z,11.14
2023-05-19T03:42:40.953Z,11.14
2023-05-19T03:43:13.105Z,11.15
2023-05-19T03:43:45.630Z,11.15
2023-05-19T03:44:17.936Z,11.15
2023-05-19T03:44:50.411Z,11.16
2023-05-19T03:45:22.452Z,11.16
2023-05-19T03:45:54.549Z,11.16
2023-05-19T03:46:26.864Z,11.16
2023-05-19T03:46:59.219Z,11.17
2023-05-19T03:47:31.452Z,11.17
2023-05-19T03:48:04.408Z,11.17
2023-05-19T03:48:36.487Z,11.17
2023-05-19T03:49:08.452Z,11.17
2023-05-19T03:49:40.486Z,11.17
2023-05-19T03:50:13.568Z,11.16
2023-05-19T03:50:45.662Z,11.17
2023-05-19T03:51:17.894Z,11.17
2023-05-19T03:51:50.127Z,11.17
2023-05-19T03:52:22.392Z,11.18
2023-05-19T03:52:54.847Z,11.18
2023-05-19T03:53:26.810Z,11.18
2023-05-19T03:53:58.873Z,11.19
2023-05-19T03:54:31.411Z,11.20
2023-05-19T03:55:04.094Z,11.20
2023-05-19T03:55:36.942Z,11.20
2023-05-19T03:56:13.309Z,11.20
2023-05-19T03:56:45.763Z,11.20
2023-05-19T03:57:17.930Z,11.19
2023-05-19T03:57:49.876Z,11.18
2023-05-19T03:58:21.916Z,11.18
2023-05-19T03:58:54.600Z,11.17
2023-05-19T03:59:26.654Z,11.16
2023-05-19T03:59:59.507Z,11.15
2023-05-19T04:00:32.029Z,11.14
2023-05-19T04:01:04.833Z,11.13
2023-05-19T04:01:36.758Z,11.13
2023-05-19T04:02:08.837Z,11.12
2023-05-19T04:02:41.048Z,11.12
2023-05-19T04:03:13.896Z,11.12
2023-05-19T04:03:46.222Z,11.12
2023-05-19T04:04:18.508Z,11.11
2023-05-19T04:04:50.859Z,11.11
2023-05-19T04:05:22.996Z,11.11
2023-05-19T04:05:55.349Z,11.11
2023-05-19T04:06:27.605Z,11.11
2023-05-19T04:06:59.556Z,11.11
2023-05-19T04:07:31.625Z,11.11
2023-05-19T04:08:03.764Z,11.12
2023-05-19T04:08:36.128Z,11.13
2023-05-19T04:09:15.748Z,11.14
2023-05-19T04:09:48.419Z,11.13
2023-05-19T04:10:21.390Z,11.13
2023-05-19T04:10:53.854Z,11.13
2023-05-19T04:11:26.101Z,11.14
2023-05-19T04:11:58.483Z,11.13
2023-05-19T04:12:31.557Z,11.12
2023-05-19T04:13:03.705Z,11.11
2023-05-19T04:13:35.974Z,11.12
2023-05-19T04:14:08.831Z,11.12
2023-05-19T04:14:41.196Z,11.11
2023-05-19T04:15:13.548Z,11.12
2023-05-19T04:15:45.706Z,11.13
2023-05-19T04:16:18.304Z,11.14
2023-05-19T04:16:50.629Z,11.14
2023-05-19T04:17:26.099Z,11.15
2023-05-19T04:17:58.443Z,11.15
2023-05-19T04:18:31.195Z,11.16
2023-05-19T04:19:03.493Z,11.17
2023-05-19T04:19:35.402Z,11.17
2023-05-19T04:20:07.862Z,11.17
2023-05-19T04:20:40.304Z,11.17
2023-05-19T04:21:12.370Z,11.18
2023-05-19T04:21:44.387Z,11.19
2023-05-19T04:22:16.467Z,11.20
2023-05-19T04:22:48.720Z,11.21
2023-05-19T04:23:20.898Z,11.22
2023-05-19T04:23:53.336Z,11.22
2023-05-19T04:24:25.794Z,11.22
2023-05-19T04:24:58.047Z,11.24
2023-05-19T04:25:30.629Z,11.23
2023-05-19T04:26:03.379Z,11.25
2023-05-19T04:26:37.545Z,11.26
2023-05-19T04:27:11.680Z,11.25
2023-05-19T04:27:43.643Z,11.25
2023-05-19T04:28:16.108Z,11.26
2023-05-19T04:28:48.757Z,11.26
2023-05-19T04:29:23.185Z,11.26
2023-05-19T04:29:55.841Z,11.26
2023-05-19T04:30:28.297Z,11.25
2023-05-19T04:31:00.895Z,11.25
2023-05-19T04:31:34.082Z,11.25
2023-05-19T04:32:07.316Z,11.26
2023-05-19T04:32:41.029Z,11.26
2023-05-19T04:33:13.556Z,11.27
2023-05-19T04:33:47.062Z,11.26
2023-05-19T04:34:19.516Z,11.26
2023-05-19T04:34:52.082Z,11.26
2023-05-19T04:35:24.661Z,11.26
2023-05-19T04:35:58.031Z,11.26
2023-05-19T04:36:31.001Z,11.26
2023-05-19T04:37:03.985Z,11.26
2023-05-19T04:37:37.556Z,11.27
2023-05-19T04:38:09.723Z,11.27
2023-05-19T04:38:41.578Z,11.28
2023-05-19T04:39:14.021Z,11.28
2023-05-19T04:39:45.941Z,11.28
2023-05-19T04:40:20.801Z,11.26
2023-05-19T04:40:52.843Z,11.25
2023-05-19T04:41:24.823Z,11.24
2023-05-19T04:41:56.830Z,11.23
2023-05-19T04:42:30.330Z,11.23
2023-05-19T04:43:02.348Z,11.23
2023-05-19T04:43:34.553Z,11.24
2023-05-19T04:44:09.687Z,11.24
2023-05-19T04:44:41.725Z,11.24
2023-05-19T04:45:14.582Z,11.23
2023-05-19T04:45:49.910Z,11.22
2023-05-19T04:46:24.239Z,11.22
2023-05-19T04:46:58.162Z,11.21
2023-05-19T04:47:30.257Z,11.20
2023-05-19T04:48:02.374Z,11.20
2023-05-19T04:48:34.478Z,11.19
2023-05-19T04:49:07.408Z,11.19
2023-05-19T04:49:39.362Z,11.19
2023-05-19T04:50:11.359Z,11.19
2023-05-19T04:50:43.396Z,11.19
2023-05-19T04:51:17.393Z,11.20
2023-05-19T04:51:53.272Z,11.20
2023-05-19T04:52:27.541Z,11.21
2023-05-19T04:52:59.481Z,11.22
2023-05-19T04:53:31.534Z,11.23
2023-05-19T04:54:03.610Z,11.23
2023-05-19T04:54:35.641Z,11.25
2023-05-19T04:55:08.308Z,11.26
2023-05-19T04:55:40.567Z,11.28
2023-05-19T04:56:14.871Z,11.29
2023-05-19T04:56:46.944Z,11.31
2023-05-19T04:57:18.942Z,11.31
2023-05-19T04:57:51.129Z,11.32
2023-05-19T04:58:26.075Z,11.33
2023-05-19T04:58:58.142Z,11.33
2023-05-19T04:59:30.896Z,11.34
2023-05-19T05:00:07.541Z,11.35
2023-05-19T05:00:39.506Z,11.35
2023-05-19T05:01:13.593Z,11.35
2023-05-19T05:01:45.670Z,11.35
2023-05-19T05:02:17.733Z,11.34
2023-05-19T05:02:50.458Z,11.33
2023-05-19T05:03:22.780Z,11.32
2023-05-19T05:03:55.426Z,11.32
2023-05-19T05:04:28.024Z,11.32
2023-05-19T05:05:00.294Z,11.33
2023-05-19T05:05:32.649Z,11.33
2023-05-19T05:06:06.248Z,11.34
2023-05-19T05:06:38.202Z,11.34
2023-05-19T05:07:10.468Z,11.32
2023-05-19T05:07:42.917Z,11.32
2023-05-19T05:08:21.416Z,11.32
2023-05-19T05:08:53.459Z,11.32
2023-05-19T05:09:25.716Z,11.32
2023-05-19T05:09:57.675Z,11.32
2023-05-19T05:10:30.121Z,11.33
2023-05-19T05:11:02.692Z,11.32
2023-05-19T05:11:35.225Z,11.32
2023-05-19T05:12:08.169Z,11.32
2023-05-19T05:12:41.170Z,11.31
2023-05-19T05:13:13.545Z,11.31
2023-05-19T05:13:45.918Z,11.30
2023-05-19T05:14:18.169Z,11.29
2023-05-19T05:14:50.945Z,11.29
2023-05-19T05:15:23.917Z,11.30
2023-05-19T05:15:56.347Z,11.29
2023-05-19T05:16:28.873Z,11.28
2023-05-19T05:17:02.318Z,11.28
2023-05-19T05:17:35.451Z,11.27
2023-05-19T05:18:08.383Z,11.26
2023-05-19T05:18:42.200Z,11.25
2023-05-19T05:19:16.695Z,11.24
2023-05-19T05:19:49.441Z,11.22
2023-05-19T05:20:22.175Z,11.21
2023-05-19T05:20:54.469Z,11.22
2023-05-19T05:21:27.647Z,11.22
2023-05-19T05:22:00.201Z,11.23
2023-05-19T05:22:33.281Z,11.23
2023-05-19T05:23:06.474Z,11.22
2023-05-19T05:23:38.832Z,11.22
2023-05-19T05:24:11.682Z,11.21
2023-05-19T05:24:44.312Z,11.21
2023-05-19T05:25:17.570Z,11.21
2023-05-19T05:25:49.984Z,11.22
2023-05-19T05:26:22.878Z,11.22
2023-05-19T05:26:55.136Z,11.22
2023-05-19T05:27:27.688Z,11.21
2023-05-19T05:28:04.648Z,11.22
2023-05-19T05:28:37.420Z,11.22
2023-05-19T05:29:10.189Z,11.23
2023-05-19T05:29:42.349Z,11.22
2023-05-19T05:30:14.386Z,11.22
2023-05-19T05:30:47.209Z,11.23
2023-05-19T05:31:19.185Z,11.22
2023-05-19T05:31:51.466Z,11.21
2023-05-19T05:32:23.533Z,11.22
2023-05-19T05:32:56.010Z,11.23
2023-05-19T05:33:28.380Z,11.24
2023-05-19T05:34:00.650Z,11.25
2023-05-19T05:34:32.968Z,11.27
2023-05-19T05:35:05.599Z,11.28
2023-05-19T05:35:37.627Z,11.29
2023-05-19T05:36:09.840Z,11.29
2023-05-19T05:36:42.104Z,11.29
2023-05-19T05:37:15.464Z,11.29
2023-05-19T05:37:47.718Z,11.30
2023-05-19T05:38:19.797Z,11.31
2023-05-19T05:38:51.822Z,11.32
2023-05-19T05:39:23.903Z,11.33
2023-05-19T05:39:56.572Z,11.35
2023-05-19T05:40:28.602Z,11.35
2023-05-19T05:41:02.410Z,11.37
2023-05-19T05:41:38.048Z,11.38
2023-05-19T05:42:11.008Z,11.39
2023-05-19T05:42:43.251Z,11.40
2023-05-19T05:43:15.428Z,11.41
2023-05-19T05:43:47.462Z,11.41
2023-05-19T05:44:19.551Z,11.43
2023-05-19T05:44:51.969Z,11.43
2023-05-19T05:45:24.338Z,11.44
2023-05-19T05:45:57.391Z,11.46
2023-05-19T05:46:29.927Z,11.46
2023-05-19T05:47:03.371Z,11.47
2023-05-19T05:47:39.299Z,11.47
2023-05-19T05:48:11.771Z,11.49
2023-05-19T05:48:44.338Z,11.49
2023-05-19T05:49:16.693Z,11.50
2023-05-19T05:49:49.910Z,11.51
2023-05-19T05:50:23.608Z,11.52
2023-05-19T05:50:57.678Z,11.53
2023-05-19T05:51:32.480Z,11.54
2023-05-19T05:52:06.783Z,11.55
2023-05-19T05:52:41.328Z,11.55
2023-05-19T05:53:19.091Z,11.55
2023-05-19T05:53:55.330Z,11.55
2023-05-19T05:54:27.987Z,11.55
2023-05-19T05:55:01.185Z,11.56
2023-05-19T05:55:33.894Z,11.57
2023-05-19T05:56:07.833Z,11.58
2023-05-19T05:56:40.911Z,11.58
2023-05-19T05:57:13.220Z,11.58
2023-05-19T05:57:45.286Z,11.58
2023-05-19T05:58:17.477Z,11.59
2023-05-19T05:58:50.244Z,11.61
2023-05-19T05:59:22.641Z,11.62
2023-05-19T05:59:55.161Z,11.62
2023-05-19T06:00:28.026Z,11.63
2023-05-19T06:01:02.038Z,11.64
2023-05-19T06:01:35.843Z,11.65
2023-05-19T06:02:08.290Z,11.64
2023-05-19T06:02:43.089Z,11.64
2023-05-19T06:03:16.532Z,11.64
2023-05-19T06:03:48.691Z,11.65
2023-05-19T06:04:20.700Z,11.65
2023-05-19T06:04:54.073Z,11.64
2023-05-19T06:05:26.414Z,11.65
2023-05-19T06:05:58.644Z,11.65
2023-05-19T06:06:31.197Z,11.66
2023-05-19T06:07:03.510Z,11.67
2023-05-19T06:07:35.392Z,11.68
2023-05-19T06:08:07.406Z,11.69
2023-05-19T06:08:39.363Z,11.71
2023-05-19T06:09:12.150Z,11.73
2023-05-19T06:09:44.223Z,11.73
2023-05-19T06:10:16.532Z,11.74
2023-05-19T06:10:48.721Z,11.72
2023-05-19T06:11:20.937Z,11.70
2023-05-19T06:11:53.211Z,11.69
2023-05-19T06:12:26.800Z,11.67
2023-05-19T06:12:58.743Z,11.68
2023-05-19T06:13:30.811Z,11.68
2023-05-19T06:14:03.284Z,11.69
2023-05-19T06:14:35.300Z,11.69
2023-05-19T06:15:07.764Z,11.69
2023-05-19T06:15:39.798Z,11.69
2023-05-19T06:16:11.806Z,11.70
2023-05-19T06:16:44.230Z,11.72
2023-05-19T06:17:16.694Z,11.74
2023-05-19T06:17:48.915Z,11.75
2023-05-19T06:18:21.214Z,11.77
2023-05-19T06:18:53.399Z,11.78
2023-05-19T06:19:25.601Z,11.77
2023-05-19T06:19:57.775Z,11.76
2023-05-19T06:20:29.904Z,11.76
2023-05-19T06:21:03.024Z,11.76
2023-05-19T06:21:35.070Z,11.77
2023-05-19T06:22:07.097Z,11.78
2023-05-19T06:22:39.660Z,11.79
2023-05-19T06:23:11.525Z,11.79
2023-05-19T06:23:43.359Z,11.79
2023-05-19T06:24:15.407Z,11.79
2023-05-19T06:24:48.174Z,11.81
2023-05-19T06:25:20.336Z,11.81
2023-05-19T06:25:52.606Z,11.83
2023-05-19T06:26:24.752Z,11.83
2023-05-19T06:26:56.826Z,11.84
2023-05-19T06:27:28.785Z,11.84
2023-05-19T06:28:01.016Z,11.83
2023-05-19T06:28:34.891Z,11.84
2023-05-19T06:29:06.946Z,11.84
2023-05-19T06:29:39.112Z,11.85
2023-05-19T06:30:11.984Z,11.86
2023-05-19T06:30:44.131Z,11.86
2023-05-19T06:31:16.116Z,11.87
2023-05-19T06:31:48.436Z,11.88
2023-05-19T06:32:20.721Z,11.87
2023-05-19T06:32:53.003Z,11.88
2023-05-19T06:33:28.844Z,11.90
2023-05-19T06:34:01.147Z,11.89
2023-05-19T06:34:33.192Z,11.88
2023-05-19T06:35:05.877Z,11.88
2023-05-19T06:35:38.350Z,11.86
2023-05-19T06:36:10.557Z,11.87
2023-05-19T06:36:42.529Z,11.87
2023-05-19T06:37:16.683Z,11.88
2023-05-19T06:37:48.589Z,11.89
2023-05-19T06:38:21.037Z,11.90
2023-05-19T06:38:53.191Z,11.90
2023-05-19T06:39:25.965Z,11.92
2023-05-19T06:39:58.020Z,11.93
2023-05-19T06:40:30.504Z,11.93
2023-05-19T06:41:02.770Z,11.93
2023-05-19T06:41:35.010Z,11.92
2023-05-19T06:42:07.223Z,11.93
2023-05-19T06:42:39.322Z,11.94
2023-05-19T06:43:11.398Z,11.94
2023-05-19T06:43:43.599Z,11.95
2023-05-19T06:44:15.762Z,11.96
2023-05-19T06:44:49.270Z,11.97
2023-05-19T06:45:22.212Z,11.97
2023-05-19T06:45:54.480Z,11.98
2023-05-19T06:46:26.659Z,11.99
2023-05-19T06:46:59.134Z,12.00
2023-05-19T06:47:31.299Z,12.01
2023-05-19T06:48:03.989Z,12.02
2023-05-19T06:48:35.878Z,12.03
2023-05-19T06:49:08.234Z,12.04
2023-05-19T06:49:40.387Z,12.04
2023-05-19T06:50:12.327Z,12.06
2023-05-19T06:50:44.910Z,12.07
2023-05-19T06:51:21.787Z,12.07
2023-05-19T06:51:53.862Z,12.08
2023-05-19T06:52:25.758Z,12.08
2023-05-19T06:52:58.014Z,12.08
2023-05-19T06:53:31.078Z,12.09
2023-05-19T06:54:03.210Z,12.09
2023-05-19T06:54:35.505Z,12.10
2023-05-19T06:55:07.963Z,12.09
2023-05-19T06:55:54.402Z,12.08
2023-05-19T06:56:30.604Z,12.05
2023-05-19T06:57:04.077Z,12.04
2023-05-19T06:57:36.188Z,12.04
2023-05-19T06:58:08.295Z,12.04
2023-05-19T06:58:40.448Z,12.05
2023-05-19T06:59:12.638Z,12.05
2023-05-19T06:59:46.179Z,12.04
2023-05-19T07:00:20.518Z,12.03
2023-05-19T07:00:54.176Z,12.03
2023-05-19T07:01:27.413Z,12.03
2023-05-19T07:01:59.711Z,12.05
2023-05-19T07:02:32.000Z,12.06
2023-05-19T07:03:04.220Z,12.08
2023-05-19T07:03:36.796Z,12.09
2023-05-19T07:04:08.992Z,12.11
2023-05-19T07:04:42.201Z,12.11
2023-05-19T07:05:14.199Z,12.13
2023-05-19T07:05:46.456Z,12.15
2023-05-19T07:06:18.531Z,12.16
2023-05-19T07:06:50.853Z,12.17
2023-05-19T07:07:22.910Z,12.17
2023-05-19T07:07:55.770Z,12.18
2023-05-19T07:08:28.036Z,12.19
2023-05-19T07:09:00.280Z,12.20
2023-05-19T07:09:33.125Z,12.21
2023-05-19T07:10:06.019Z,12.22
2023-05-19T07:10:38.597Z,12.23
2023-05-19T07:11:12.030Z,12.26
2023-05-19T07:11:43.818Z,12.27
2023-05-19T07:12:15.778Z,12.28
2023-05-19T07:12:47.823Z,12.29
2023-05-19T07:13:20.175Z,12.30
2023-05-19T07:13:52.222Z,12.31